Ariel, Washington
Current Conditions -  °F | °C
As of 12:55 AM on Friday 24 Oct 2014 (Local Time) from KKLS Reporting Station
Overcast Overcast  
Wind Chill: 11°   Ceiling: 7000
Heat Index: 11°   Visibility: 10mi
Dew Point:   Wind: 3mph
Humidity: 88%   Direction: 160°SSE
Pressure: 30.05"   Gusts: NA
Location:  45.96°N, 122.57°W
Report Text: KKLS 240755Z AUTO 16003KT 10SM BKN070 BKN090 OVC110 11/09 A3005 RMK AO1 P0004
Loading
Personal Weather Stations






























Interactive Weather Map
Tropical Storm Tracking
New forecast layout! Learn more

10-Day Weather Forecast

Advertisements
Track Severe Weather on mobile